createdAt,value
2019-01-05T00:01:06.118Z,6.60
2019-01-05T00:03:51.463Z,6.60
2019-01-05T00:06:24.695Z,6.60
2019-01-05T00:09:03.966Z,6.60
2019-01-05T00:11:50.395Z,6.70
2019-01-05T00:14:26.411Z,6.60
2019-01-05T00:17:13.785Z,6.60
2019-01-05T00:20:05.390Z,6.60
2019-01-05T00:22:35.932Z,6.60
2019-01-05T00:25:11.832Z,6.60
2019-01-05T00:27:58.551Z,6.60
2019-01-05T00:30:48.169Z,6.70
2019-01-05T00:33:36.496Z,6.60
2019-01-05T00:36:16.411Z,6.60
2019-01-05T00:38:48.369Z,6.60
2019-01-05T00:41:20.267Z,6.60
2019-01-05T00:43:54.182Z,6.60
2019-01-05T00:46:28.510Z,6.70
2019-01-05T00:49:10.858Z,6.60
2019-01-05T00:51:58.255Z,6.60
2019-01-05T00:54:45.207Z,6.60
2019-01-05T00:57:16.328Z,6.60
2019-01-05T00:59:46.558Z,6.60
2019-01-05T01:02:19.471Z,6.60
2019-01-05T01:04:49.621Z,6.60
2019-01-05T01:07:25.860Z,6.60
2019-01-05T01:10:13.007Z,6.60
2019-01-05T01:12:46.115Z,6.60
2019-01-05T01:15:31.240Z,6.60
2019-01-05T01:18:16.416Z,6.50
2019-01-05T01:20:52.743Z,6.40
2019-01-05T01:23:28.995Z,6.40
2019-01-05T01:26:11.349Z,6.40
2019-01-05T01:28:47.905Z,6.50
2019-01-05T01:31:33.650Z,6.50
2019-01-05T01:34:04.176Z,6.50
2019-01-05T01:36:34.466Z,6.50
2019-01-05T01:39:14.115Z,6.50
2019-01-05T01:41:50.522Z,6.50
2019-01-05T01:44:29.985Z,6.50
2019-01-05T01:47:17.943Z,6.60
2019-01-05T01:49:53.934Z,6.50
2019-01-05T01:52:42.473Z,6.60
2019-01-05T01:55:31.107Z,6.60
2019-01-05T01:58:13.931Z,6.60
2019-01-05T02:00:59.171Z,6.60
2019-01-05T02:03:35.664Z,6.60
2019-01-05T02:06:15.958Z,6.70
2019-01-05T02:09:05.443Z,6.70
2019-01-05T02:11:38.611Z,6.70
2019-01-05T02:14:26.862Z,6.70
2019-01-05T02:17:00.008Z,6.70
2019-01-05T02:19:42.088Z,6.70
2019-01-05T02:22:34.930Z,6.80
2019-01-05T02:25:43.812Z,6.80
2019-01-05T02:28:38.216Z,6.80
2019-01-05T02:31:19.683Z,6.80
2019-01-05T02:34:07.849Z,6.90
2019-01-05T02:37:12.858Z,6.90
2019-01-05T02:39:57.282Z,6.80
2019-01-05T02:43:03.780Z,6.80
2019-01-05T02:46:10.313Z,6.80
2019-01-05T02:49:19.102Z,6.90
2019-01-05T02:52:04.601Z,6.90
2019-01-05T02:55:06.025Z,6.90
2019-01-05T02:58:13.466Z,6.90
2019-01-05T03:01:10.658Z,6.90
2019-01-05T03:03:58.169Z,6.80
2019-01-05T03:06:47.841Z,6.90
2019-01-05T03:09:43.507Z,6.90
2019-01-05T03:12:45.496Z,6.90
2019-01-05T03:15:30.303Z,6.90
2019-01-05T03:18:29.208Z,6.90
2019-01-05T03:21:14.502Z,6.90
2019-01-05T03:24:17.339Z,7.00
2019-01-05T03:26:56.262Z,7.00
2019-01-05T03:30:01.957Z,7.00
2019-01-05T03:33:12.682Z,7.10
2019-01-05T03:36:35.989Z,7.00
2019-01-05T03:39:42.179Z,7.10
2019-01-05T03:42:27.359Z,7.20
2019-01-05T03:45:32.358Z,7.20
2019-01-05T03:48:17.577Z,7.20
2019-01-05T03:51:15.857Z,7.20
2019-01-05T03:54:41.192Z,7.10
2019-01-05T03:57:34.817Z,7.10
2019-01-05T04:00:16.611Z,7.20
2019-01-05T04:02:50.023Z,7.20
2019-01-05T04:05:57.975Z,7.20
2019-01-05T04:08:56.989Z,7.30
2019-01-05T04:12:10.675Z,7.30
2019-01-05T04:15:24.728Z,7.30
2019-01-05T04:18:37.898Z,7.30
2019-01-05T04:21:44.054Z,7.30
2019-01-05T04:24:54.982Z,7.40
2019-01-05T04:27:48.556Z,7.40
2019-01-05T04:30:37.725Z,7.40
2019-01-05T04:33:48.581Z,7.40
2019-01-05T04:36:42.721Z,7.50
2019-01-05T04:39:37.640Z,7.60
2019-01-05T04:42:48.118Z,7.50
2019-01-05T04:46:00.763Z,7.50
2019-01-05T04:48:49.918Z,7.50
2019-01-05T04:51:47.336Z,7.50
2019-01-05T04:54:43.217Z,7.60
2019-01-05T04:57:46.610Z,7.50
2019-01-05T05:00:34.460Z,7.70
2019-01-05T05:03:46.644Z,7.60
2019-01-05T05:06:40.746Z,7.60
2019-01-05T05:09:42.330Z,7.60
2019-01-05T05:12:30.660Z,7.70
2019-01-05T05:15:52.435Z,7.70
2019-01-05T05:19:14.789Z,7.70
2019-01-05T05:21:56.631Z,7.70
2019-01-05T05:24:35.869Z,7.70
2019-01-05T05:27:31.637Z,7.70
2019-01-05T05:30:13.058Z,7.60
2019-01-05T05:33:09.770Z,7.60
2019-01-05T05:36:08.420Z,7.70
2019-01-05T05:39:08.737Z,7.70
2019-01-05T05:41:56.947Z,7.70
2019-01-05T05:44:53.950Z,7.70
2019-01-05T05:48:09.517Z,7.70
2019-01-05T05:51:20.863Z,7.70
2019-01-05T05:54:02.883Z,7.70
2019-01-05T05:57:12.274Z,7.70
2019-01-05T06:00:21.745Z,7.70
2019-01-05T06:03:21.232Z,7.60
2019-01-05T06:06:23.270Z,7.60
2019-01-05T06:09:26.478Z,7.70
2019-01-05T06:12:25.061Z,7.60
2019-01-05T06:15:28.959Z,7.70
2019-01-05T06:18:17.102Z,7.70
2019-01-05T06:21:36.721Z,7.70
2019-01-05T06:24:32.735Z,7.80
2019-01-05T06:27:58.602Z,7.70
2019-01-05T06:30:49.574Z,7.80
2019-01-05T06:33:43.226Z,7.80
2019-01-05T06:36:42.025Z,7.80
2019-01-05T06:39:42.787Z,7.80
2019-01-05T06:42:55.317Z,7.70
2019-01-05T06:46:05.676Z,7.80
2019-01-05T06:49:04.501Z,7.70
2019-01-05T06:51:42.993Z,7.70
2019-01-05T06:54:36.830Z,7.80
2019-01-05T06:57:42.613Z,7.80
2019-01-05T07:00:35.307Z,7.70
2019-01-05T07:03:20.267Z,7.70
2019-01-05T07:06:08.503Z,7.80
2019-01-05T07:09:33.783Z,7.90
2019-01-05T07:12:46.214Z,7.90
2019-01-05T07:15:31.439Z,7.70
2019-01-05T07:18:35.498Z,7.70
2019-01-05T07:21:27.908Z,7.60
2019-01-05T07:24:51.006Z,7.70
2019-01-05T07:27:46.786Z,7.70
2019-01-05T07:30:42.549Z,7.80
2019-01-05T07:33:32.371Z,7.70
2019-01-05T07:36:32.704Z,7.70
2019-01-05T07:39:30.014Z,7.70
2019-01-05T07:42:35.999Z,7.70
2019-01-05T07:45:34.333Z,7.70
2019-01-05T07:48:41.502Z,7.70
2019-01-05T07:51:43.620Z,7.80
2019-01-05T07:54:53.664Z,7.80
2019-01-05T07:57:41.752Z,7.80
2019-01-05T08:00:54.178Z,7.70
2019-01-05T08:03:53.268Z,7.70
2019-01-05T08:06:56.511Z,7.80
2019-01-05T08:09:41.530Z,7.70
2019-01-05T08:12:51.154Z,7.80
2019-01-05T08:15:41.013Z,7.70
2019-01-05T08:18:29.279Z,7.80
2019-01-05T08:21:24.904Z,7.80
2019-01-05T08:24:39.688Z,7.80
2019-01-05T08:27:42.981Z,7.70
2019-01-05T08:30:34.146Z,7.80
2019-01-05T08:33:31.370Z,7.90
2019-01-05T08:36:37.777Z,7.90
2019-01-05T08:39:48.395Z,7.80
2019-01-05T08:43:12.198Z,7.80
2019-01-05T08:46:19.296Z,7.70
2019-01-05T08:49:13.239Z,7.80
2019-01-05T08:52:18.948Z,7.90
2019-01-05T08:55:41.954Z,7.80
2019-01-05T08:58:54.154Z,7.90
2019-01-05T09:01:43.868Z,7.90
2019-01-05T09:04:47.636Z,7.90
2019-01-05T09:07:57.306Z,7.90
2019-01-05T09:10:49.925Z,7.90
2019-01-05T09:13:51.681Z,7.90
2019-01-05T09:16:43.961Z,7.90
2019-01-05T09:19:25.860Z,8.00
2019-01-05T09:22:30.895Z,8.00
2019-01-05T09:25:38.561Z,8.00
2019-01-05T09:28:43.345Z,8.00
2019-01-05T09:31:29.012Z,8.00
2019-01-05T09:34:37.120Z,7.90
2019-01-05T09:37:30.794Z,8.00
2019-01-05T09:40:33.156Z,8.00
2019-01-05T09:43:22.940Z,7.90
2019-01-05T09:46:25.785Z,8.00
2019-01-05T09:49:16.124Z,8.10
2019-01-05T09:52:03.484Z,8.10
2019-01-05T09:55:16.348Z,8.20
2019-01-05T09:58:20.067Z,8.20
2019-01-05T10:01:23.453Z,8.20
2019-01-05T10:04:39.051Z,8.20
2019-01-05T10:07:45.838Z,8.30
2019-01-05T10:10:40.037Z,8.20
2019-01-05T10:13:49.605Z,8.30
2019-01-05T10:17:00.332Z,8.20
2019-01-05T10:20:06.617Z,8.30
2019-01-05T10:22:53.947Z,8.20
2019-01-05T10:26:00.465Z,8.20
2019-01-05T10:29:06.677Z,8.10
2019-01-05T10:32:02.044Z,8.30
2019-01-05T10:35:08.180Z,8.30
2019-01-05T10:38:00.908Z,8.30
2019-01-05T10:40:55.011Z,8.20
2019-01-05T10:43:39.404Z,8.30
2019-01-05T10:46:24.192Z,8.20
2019-01-05T10:49:27.295Z,8.20
2019-01-05T10:52:27.457Z,8.20
2019-01-05T10:55:45.663Z,8.10
2019-01-05T10:58:44.294Z,8.20
2019-01-05T11:01:25.790Z,8.10
2019-01-05T11:04:27.692Z,8.20
2019-01-05T11:07:34.283Z,8.30
2019-01-05T11:10:33.990Z,8.30
2019-01-05T11:13:27.930Z,8.40
2019-01-05T11:16:29.227Z,8.40
2019-01-05T11:19:31.332Z,8.40
2019-01-05T11:22:33.184Z,8.40
2019-01-05T11:25:27.234Z,8.50
2019-01-05T11:28:21.610Z,8.40
2019-01-05T11:31:20.352Z,8.30
2019-01-05T11:34:11.827Z,8.40
2019-01-05T11:37:05.982Z,8.40
2019-01-05T11:39:47.811Z,8.40
2019-01-05T11:42:33.175Z,8.50
2019-01-05T11:45:29.066Z,8.50
2019-01-05T11:48:43.662Z,8.50
2019-01-05T11:51:36.133Z,8.60
2019-01-05T11:54:38.895Z,8.60
2019-01-05T11:57:50.903Z,8.70
2019-01-05T12:00:44.844Z,8.70
2019-01-05T12:03:37.873Z,8.60
2019-01-05T12:06:51.939Z,8.60
2019-01-05T12:09:36.235Z,8.50
2019-01-05T12:12:53.975Z,8.50
2019-01-05T12:16:19.183Z,8.40
2019-01-05T12:19:42.502Z,8.50
2019-01-05T12:22:47.919Z,8.60
2019-01-05T12:26:09.287Z,8.40
2019-01-05T12:29:08.209Z,8.40
2019-01-05T12:32:31.605Z,8.40
2019-01-05T12:35:39.795Z,8.40
2019-01-05T12:38:44.930Z,8.50
2019-01-05T12:41:47.206Z,8.40
2019-01-05T12:44:43.231Z,8.50
2019-01-05T12:47:34.037Z,8.50
2019-01-05T12:50:47.725Z,8.50
2019-01-05T12:53:57.377Z,8.50
2019-01-05T12:56:45.151Z,8.50
2019-01-05T13:00:05.247Z,8.60
2019-01-05T13:03:02.526Z,8.60
2019-01-05T13:05:50.405Z,8.60
2019-01-05T13:09:02.721Z,8.60
2019-01-05T13:11:59.786Z,8.50
2019-01-05T13:14:58.733Z,8.70
2019-01-05T13:17:48.224Z,8.60
2019-01-05T13:20:27.074Z,8.50
2019-01-05T13:23:36.655Z,8.50
2019-01-05T13:26:35.364Z,8.60
2019-01-05T13:29:42.173Z,8.60
2019-01-05T13:32:50.223Z,8.50
2019-01-05T13:35:50.601Z,8.50
2019-01-05T13:38:44.053Z,8.50
2019-01-05T13:41:42.818Z,8.50
2019-01-05T13:44:42.961Z,8.40
2019-01-05T13:47:39.802Z,8.40
2019-01-05T13:50:37.127Z,8.50
2019-01-05T13:53:29.528Z,8.40
2019-01-05T13:56:05.395Z,8.40
2019-01-05T13:58:52.375Z,8.50
2019-01-05T14:01:22.437Z,8.50
2019-01-05T14:04:07.352Z,8.50
2019-01-05T14:06:53.502Z,8.50
2019-01-05T14:09:36.010Z,8.40
2019-01-05T14:12:09.403Z,8.50
2019-01-05T14:14:48.347Z,8.60
2019-01-05T14:17:18.417Z,8.50
2019-01-05T14:20:00.932Z,8.50
2019-01-05T14:22:33.817Z,8.60
2019-01-05T14:25:07.073Z,8.40
2019-01-05T14:27:49.201Z,8.30
2019-01-05T14:30:25.462Z,8.40
2019-01-05T14:32:58.588Z,8.50
2019-01-05T14:35:43.676Z,8.50
2019-01-05T14:38:19.527Z,8.50
2019-01-05T14:40:55.568Z,8.40
2019-01-05T14:43:31.665Z,8.40
2019-01-05T14:46:18.307Z,8.50
2019-01-05T14:48:51.526Z,8.50
2019-01-05T14:51:21.570Z,8.60
2019-01-05T14:53:51.644Z,8.60
2019-01-05T14:56:21.680Z,8.60
2019-01-05T14:58:57.720Z,8.50
2019-01-05T15:01:27.768Z,8.50
2019-01-05T15:04:06.609Z,8.50
2019-01-05T15:06:39.596Z,8.40
2019-01-05T15:09:26.345Z,8.40
2019-01-05T15:12:11.383Z,8.40
2019-01-05T15:14:58.304Z,8.40
2019-01-05T15:17:44.759Z,8.40
2019-01-05T15:20:31.345Z,8.40
2019-01-05T15:23:01.716Z,8.30
2019-01-05T15:25:47.941Z,8.30
2019-01-05T15:28:34.668Z,8.30
2019-01-05T15:31:21.617Z,8.30
2019-01-05T15:34:08.294Z,8.30
2019-01-05T15:36:47.593Z,8.20
2019-01-05T15:39:34.240Z,8.20
2019-01-05T15:42:10.038Z,8.00
2019-01-05T15:44:40.385Z,8.10
2019-01-05T15:47:27.151Z,8.20
2019-01-05T15:50:03.287Z,8.20
2019-01-05T15:52:39.481Z,8.20
2019-01-05T15:55:11.962Z,8.20
2019-01-05T15:57:47.744Z,8.20
2019-01-05T16:00:29.834Z,8.10
2019-01-05T16:03:09.183Z,8.20
2019-01-05T16:05:55.544Z,8.20
2019-01-05T16:08:31.877Z,8.20
2019-01-05T16:11:27.039Z,8.10
2019-01-05T16:14:13.781Z,8.10
2019-01-05T16:17:00.482Z,8.10
2019-01-05T16:19:42.607Z,8.10
2019-01-05T16:22:29.054Z,8.10
2019-01-05T16:25:15.465Z,8.20
2019-01-05T16:27:45.537Z,8.00
2019-01-05T16:30:24.502Z,8.00
2019-01-05T16:33:06.585Z,7.90
2019-01-05T16:35:36.641Z,8.00
2019-01-05T16:38:23.186Z,8.00
2019-01-05T16:40:58.980Z,8.00
2019-01-05T16:43:45.321Z,8.00
2019-01-05T16:46:15.364Z,8.10
2019-01-05T16:48:57.720Z,8.10
2019-01-05T16:51:27.781Z,8.10
2019-01-05T16:54:06.951Z,8.10
2019-01-05T16:56:37.298Z,8.10
2019-01-05T16:59:10.047Z,8.10
2019-01-05T17:01:52.240Z,8.10
2019-01-05T17:04:30.809Z,8.00
2019-01-05T17:07:18.750Z,8.10
2019-01-05T17:09:54.820Z,8.10
2019-01-05T17:12:33.689Z,8.10
2019-01-05T17:15:20.625Z,8.10
2019-01-05T17:17:53.174Z,8.00
2019-01-05T17:20:29.515Z,8.00
2019-01-05T17:23:14.611Z,8.00
2019-01-05T17:25:47.243Z,8.10
2019-01-05T17:28:25.764Z,8.00
2019-01-05T17:31:01.825Z,8.00
2019-01-05T17:33:34.655Z,8.00
2019-01-05T17:36:05.014Z,8.00
2019-01-05T17:38:51.459Z,8.10
2019-01-05T17:41:21.511Z,8.10
2019-01-05T17:43:51.838Z,8.10
2019-01-05T17:46:24.838Z,8.10
2019-01-05T17:49:06.688Z,8.10
2019-01-05T17:51:47.134Z,8.10
2019-01-05T17:54:11.974Z,8.10
2019-01-05T17:56:48.059Z,8.00
2019-01-05T17:59:18.120Z,8.00
2019-01-05T18:02:04.689Z,8.10
2019-01-05T18:04:40.665Z,8.10
2019-01-05T18:07:13.725Z,8.10
2019-01-05T18:10:02.113Z,8.20
2019-01-05T18:12:41.221Z,8.20
2019-01-05T18:15:26.351Z,8.20
2019-01-05T18:17:56.423Z,8.10
2019-01-05T18:20:42.757Z,8.10
2019-01-05T18:23:24.669Z,8.00
2019-01-05T18:26:04.118Z,8.00
2019-01-05T18:28:34.185Z,8.10
2019-01-05T18:31:04.527Z,8.10
2019-01-05T18:33:34.631Z,8.10
2019-01-05T18:36:07.683Z,8.10
2019-01-05T18:38:46.925Z,8.00
2019-01-05T18:41:23.084Z,8.10
2019-01-05T18:44:09.747Z,8.10
2019-01-05T18:46:42.776Z,8.10
2019-01-05T18:49:29.389Z,8.10
2019-01-05T18:52:15.725Z,8.10
2019-01-05T18:54:49.157Z,8.00
2019-01-05T18:57:37.335Z,7.90
2019-01-05T19:00:14.234Z,8.00
2019-01-05T19:03:03.003Z,8.00
2019-01-05T19:05:33.366Z,7.90
2019-01-05T19:08:18.608Z,7.90
2019-01-05T19:10:51.456Z,7.90
2019-01-05T19:13:24.365Z,7.90
2019-01-05T19:16:12.557Z,7.90
2019-01-05T19:18:42.891Z,7.90
2019-01-05T19:21:13.022Z,8.00
2019-01-05T19:23:43.354Z,8.00
2019-01-05T19:26:19.253Z,8.10
2019-01-05T19:28:49.352Z,8.10
2019-01-05T19:31:25.987Z,8.00
2019-01-05T19:34:13.051Z,8.10
2019-01-05T19:36:59.470Z,8.00
2019-01-05T19:39:45.190Z,8.00
2019-01-05T19:42:31.273Z,8.00
2019-01-05T19:45:01.338Z,8.00
2019-01-05T19:47:48.133Z,8.00
2019-01-05T19:50:18.184Z,8.00
2019-01-05T19:52:51.239Z,8.10
2019-01-05T19:55:29.964Z,8.10
2019-01-05T19:58:12.249Z,8.10
2019-01-05T20:00:58.299Z,8.10
2019-01-05T20:03:44.999Z,8.00
2019-01-05T20:06:21.073Z,7.90
2019-01-05T20:09:00.122Z,8.00
2019-01-05T20:11:46.532Z,8.00
2019-01-05T20:14:23.050Z,7.90
2019-01-05T20:16:53.508Z,8.00
2019-01-05T20:19:29.653Z,8.00
2019-01-05T20:22:02.779Z,8.00
2019-01-05T20:24:41.723Z,8.00
2019-01-05T20:27:11.795Z,8.00
2019-01-05T20:29:58.162Z,8.00
2019-01-05T20:32:43.858Z,7.90
2019-01-05T20:35:31.969Z,7.90
2019-01-05T20:38:18.514Z,7.90
2019-01-05T20:41:04.055Z,8.00
2019-01-05T20:43:49.588Z,8.00
2019-01-05T20:46:35.817Z,8.00
2019-01-05T20:49:22.627Z,8.00
2019-01-05T20:52:11.341Z,8.00
2019-01-05T20:54:58.463Z,7.90
2019-01-05T20:57:46.660Z,7.80
2019-01-05T21:00:19.414Z,7.90
2019-01-05T21:02:49.459Z,7.80
2019-01-05T21:05:35.868Z,7.80
2019-01-05T21:08:15.173Z,7.80
2019-01-05T21:10:45.252Z,7.80
2019-01-05T21:17:05.555Z,7.90
2019-01-05T21:19:52.117Z,7.80
2019-01-05T21:22:38.484Z,7.80
2019-01-05T21:25:08.556Z,7.90
2019-01-05T21:27:54.729Z,7.90
2019-01-05T21:30:27.525Z,7.90
2019-01-05T21:32:57.647Z,7.90
2019-01-05T21:35:42.729Z,7.90
2019-01-05T21:38:27.853Z,7.90
2019-01-05T21:40:57.907Z,7.90
2019-01-05T21:43:27.970Z,8.00
2019-01-05T21:46:13.437Z,7.90
2019-01-05T21:48:46.419Z,8.00
2019-01-05T21:51:28.467Z,8.00
2019-01-05T21:54:14.813Z,8.00
2019-01-05T21:59:49.734Z,7.90
2019-01-05T22:02:29.067Z,7.90
2019-01-05T22:05:15.952Z,8.00
2019-01-05T22:07:58.289Z,8.00
2019-01-05T22:10:28.333Z,8.00
2019-01-05T22:13:15.056Z,7.90
2019-01-05T22:15:47.790Z,8.00
2019-01-05T22:18:24.160Z,7.90
2019-01-05T22:20:56.339Z,7.90
2019-01-05T22:23:29.630Z,7.90
2019-01-05T22:26:02.213Z,7.90
2019-01-05T22:28:35.005Z,7.90
2019-01-05T22:31:05.077Z,7.80
2019-01-05T22:33:37.785Z,7.80
2019-01-05T22:36:07.834Z,7.80
2019-01-05T22:38:56.076Z,7.70
2019-01-05T22:41:35.386Z,7.80
2019-01-05T22:44:13.998Z,7.70
2019-01-05T22:46:55.723Z,7.80
2019-01-05T22:49:41.084Z,7.80
2019-01-05T22:52:29.507Z,7.90
2019-01-05T22:54:59.913Z,7.80
2019-01-05T22:57:45.210Z,7.80
2019-01-05T23:00:31.992Z,7.80
2019-01-05T23:03:20.436Z,7.80
2019-01-05T23:05:56.275Z,7.80
2019-01-05T23:08:42.677Z,7.80
2019-01-05T23:11:29.333Z,7.80
2019-01-05T23:14:08.717Z,7.80
2019-01-05T23:16:56.931Z,7.70
2019-01-05T23:19:33.519Z,7.60
2019-01-05T23:22:20.278Z,7.60
2019-01-05T23:24:53.115Z,7.60
2019-01-05T23:27:23.425Z,7.60
2019-01-05T23:30:02.797Z,7.50
2019-01-05T23:32:32.839Z,7.50
2019-01-05T23:35:15.108Z,7.50
2019-01-05T23:38:01.761Z,7.60
2019-01-05T23:40:38.094Z,7.50
2019-01-05T23:43:08.388Z,7.50
2019-01-05T23:45:44.439Z,7.60
2019-01-05T23:48:30.651Z,7.70
2019-01-05T23:51:17.067Z,7.70
2019-01-05T23:54:04.017Z,7.60
2019-01-05T23:56:46.059Z,7.60
2019-01-05T23:59:18.860Z,7.60
